Flag for United Kingdom

Past Weather in 53°23'52.0"N, 2°19'01.0"W, United Kingdom — Yesterday and Last 2 Weeks

Currently: 64 °F. Clear. (Weather station: Manchester Airport, United Kingdom). See more current weather

Past Weather in 53°23'52.0"N, 2°19'01.0"W — Graph

°F

53°23'52.0"N, 2°19'01.0"W Temperature Yesterday

Maximum temperature yesterday: 64 °F (at 11:50 am)
Minimum temperature yesterday: 55 °F (at 11:50 pm)
Average temperature yesterday: 60 °F

High & Low Weather Summary for the Past Weeks

 TemperatureHumidityPressure
High72 °F (Jul 17, 3:20 pm)100% (Jul 3, 4:20 am)30.12 "Hg (Jul 3, 4:20 am)
Low43 °F (Jul 8, 4:20 am)40% (Jul 8, 5:50 pm)29.47 "Hg (Jul 6, 3:50 am)
Average58 °F79%29.84 "Hg
* Reported Jul 2 8:20 pm — Jul 17 8:20 pm, 53°23'52.0"N, 2°19'01.0"W. Weather by CustomWeather, © 2024

Note: Actual official high and low records may vary slightly from our data, if they occured in-between our weather recording intervals... More about our weather records

53°23'52.0"N, 2°19'01.0"W Weather History for the Previous 24 Hours

Scroll right to see more
 ConditionsComfort  
Time TempWeatherWind HumidityBarometerVisibility
8:20 pm
Wed, Jul 17
68 °FSunny.2 mph64%30.09 "Hg10 mi
7:50 pm68 °FSunny.1 mph64%30.09 "Hg10 mi
7:20 pm70 °FPassing clouds.3 mph60%30.09 "HgN/A
6:50 pm70 °FClear.2 mph60%30.09 "HgN/A
6:20 pm72 °FHaze.2 mph53%30.09 "Hg3 mi
5:50 pm72 °FPassing clouds.3 mph57%30.09 "HgN/A
5:20 pm72 °FScattered clouds.5 mph57%30.09 "HgN/A
4:50 pm72 °FClear.2 mph53%30.09 "HgN/A
4:20 pm72 °FPassing clouds.3 mph53%30.12 "HgN/A
3:50 pm70 °FSunny.2 mph57%30.12 "Hg10 mi
3:20 pm72 °FPassing clouds.5 mph57%30.12 "HgN/A
2:50 pm70 °FClear.3 mph57%30.12 "HgN/A
2:20 pm70 °FPassing clouds.2 mph60%30.12 "HgN/A
1:50 pm70 °FClear.3 mph60%30.12 "HgN/A
1:20 pm68 °FClear.5 mph64%30.12 "HgN/A
12:50 pm68 °FClear.6 mph60%30.12 "HgN/A
12:20 pm66 °FScattered clouds.6 mph68%30.12 "HgN/A
11:50 am66 °FPassing clouds.6 mph68%30.12 "HgN/A
11:20 am66 °FPassing clouds.3 mph68%30.12 "HgN/A
10:50 am64 °FScattered clouds.3 mph73%30.12 "HgN/A
10:20 am64 °FScattered clouds.5 mph73%30.12 "HgN/A
9:50 am63 °FScattered clouds.3 mph77%30.12 "HgN/A
9:20 am63 °FClear.3 mph77%30.12 "HgN/A
8:50 am61 °FPassing clouds.3 mph83%30.12 "HgN/A
8:20 am59 °FScattered clouds.3 mph88%30.09 "HgN/A
7:50 am57 °FScattered clouds.2 mph88%30.09 "HgN/A
7:20 am55 °FClear.3 mph94%30.09 "HgN/A
6:50 am55 °FPassing clouds.2 mph94%30.07 "HgN/A
6:20 am54 °FPassing clouds.2 mph94%30.07 "HgN/A
5:50 am54 °FFog.3 mph100%30.07 "Hg3 mi
5:20 am54 °FMostly cloudy.5 mph100%30.07 "Hg5 mi
4:50 am52 °FFog.3 mph100%30.07 "Hg3 mi
4:20 am52 °FFog.3 mph94%30.07 "Hg2 mi
3:50 am54 °FPassing clouds.3 mph94%30.07 "Hg4 mi
3:20 am54 °FPassing clouds.3 mph100%30.07 "Hg6 mi
2:50 am50 °FPassing clouds.2 mph100%30.07 "Hg4 mi
2:20 am52 °FFog.3 mph94%30.04 "Hg1 mi
1:50 am54 °FClear.3 mph94%30.04 "HgN/A
1:20 am54 °FClear.3 mph94%30.04 "HgN/A
12:50 am54 °FClear.3 mph94%30.04 "HgN/A
12:20 am54 °FClear.3 mph94%30.04 "HgN/A
11:50 pm
Tue, Jul 16
55 °FPassing clouds.2 mph88%30.01 "HgN/A
11:20 pm57 °FPassing clouds.2 mph82%30.01 "HgN/A
10:50 pm59 °FOvercast.3 mph82%30.01 "HgN/A
10:20 pm59 °FMostly cloudy.5 mph82%30.01 "HgN/A
Weather by CustomWeather, © 2024

See weather overview